Time;durP1;ratioP1;P1;durP2;ratioP2;P2;SDS_P1;SDS_P2;PMS_P1;PMS_P2;Temp;Humidity;BMP_temperature;BMP_pressure;BME280_temperature;BME280_humidity;BME280_pressure;Samples;Min_cycle;Max_cycle;Signal;HPM_P1;HPM_P2
2023/03/23 00:02:29;;;;;;;75.27;48.73;;;;;;;7.98;65.20;100523.83;124569;1099;104223;-72
2023/03/23 00:05:03;;;;;;;73.40;46.10;;;;;;;7.90;65.42;100516.55;124693;1099;101894;-73
2023/03/23 00:07:34;;;;;;;70.20;44.05;;;;;;;7.85;64.54;100527.59;124787;1099;104194;-71
2023/03/23 00:10:07;;;;;;;71.63;44.83;;;;;;;7.80;65.24;100524.77;124221;1099;104235;-73
2023/03/23 00:12:42;;;;;;;68.70;42.07;;;;;;;7.76;65.60;100521.94;124241;1099;104156;-72
2023/03/23 00:15:16;;;;;;;70.43;42.90;;;;;;;7.70;65.58;100517.34;124293;1099;104261;-72
2023/03/23 00:17:47;;;;;;;65.53;41.80;;;;;;;7.67;66.05;100527.64;124289;1101;104373;-72
2023/03/23 00:20:19;;;;;;;67.67;42.23;;;;;;;7.63;66.17;100515.25;124346;1099;104651;-72
2023/03/23 00:22:50;;;;;;;62.13;40.60;;;;;;;7.61;65.96;100516.91;124694;1099;104172;-72
2023/03/23 00:25:21;;;;;;;66.53;39.43;;;;;;;7.59;65.69;100510.69;124661;1099;101964;-73
2023/03/23 00:27:53;;;;;;;67.63;41.23;;;;;;;7.60;65.97;100505.54;124675;1099;101830;-77
2023/03/23 00:30:24;;;;;;;64.03;40.50;;;;;;;7.64;66.24;100496.16;124262;1099;110160;-73
2023/03/23 00:32:55;;;;;;;62.83;38.77;;;;;;;7.68;65.76;100490.23;124278;1099;101820;-73
2023/03/23 00:35:27;;;;;;;61.40;37.20;;;;;;;7.72;65.85;100502.63;124250;1099;104306;-73
2023/03/23 00:37:59;;;;;;;60.23;37.53;;;;;;;7.72;65.98;100507.85;124231;1099;104251;-74
2023/03/23 00:40:35;;;;;;;67.90;40.33;;;;;;;7.69;66.81;100500.75;124233;1099;104304;-74
2023/03/23 00:43:08;;;;;;;64.50;40.20;;;;;;;7.61;66.49;100506.45;124267;1099;104268;-73
2023/03/23 00:45:39;;;;;;;67.40;40.45;;;;;;;7.55;67.10;100512.27;124244;1098;101826;-73
2023/03/23 00:48:12;;;;;;;61.87;38.70;;;;;;;7.47;66.87;100514.51;124275;1099;102051;-78
2023/03/23 00:50:43;;;;;;;65.87;39.03;;;;;;;7.42;66.87;100508.18;124225;1102;104275;-73
2023/03/23 00:53:15;;;;;;;63.80;38.73;;;;;;;7.37;67.03;100507.95;124322;1099;102518;-74
2023/03/23 00:55:47;;;;;;;66.83;40.57;;;;;;;7.35;67.44;100509.61;124239;1098;104332;-75
2023/03/23 00:58:19;;;;;;;64.93;40.47;;;;;;;7.32;66.88;100508.54;124188;1099;104233;-73
2023/03/23 01:00:50;;;;;;;63.13;39.77;;;;;;;7.30;67.34;100505.85;124694;1099;104243;-73
2023/03/23 01:03:21;;;;;;;63.70;39.00;;;;;;;7.27;66.68;100504.82;124639;1099;104223;-72
2023/03/23 01:05:54;;;;;;;64.00;38.90;;;;;;;7.23;67.25;100505.48;124275;1099;104079;-74
2023/03/23 01:08:27;;;;;;;63.83;39.70;;;;;;;7.21;67.57;100502.80;124755;1099;104230;-72
2023/03/23 01:11:04;;;;;;;64.50;39.97;;;;;;;7.17;67.70;100504.37;124320;1099;104175;-74
2023/03/23 01:13:36;;;;;;;60.60;37.83;;;;;;;7.12;68.00;100503.25;124341;1099;104192;-74
2023/03/23 01:16:09;;;;;;;63.77;38.93;;;;;;;7.06;68.56;100505.56;124286;1099;104131;-74
2023/03/23 01:18:40;;;;;;;66.57;38.47;;;;;;;6.99;67.70;100509.55;124641;1099;104179;-74
2023/03/23 01:21:14;;;;;;;60.53;36.87;;;;;;;6.98;67.91;100501.64;124258;1099;101939;-74
2023/03/23 01:23:46;;;;;;;61.15;37.83;;;;;;;6.96;67.98;100503.30;124412;1099;102142;-75
2023/03/23 01:26:19;;;;;;;61.50;38.10;;;;;;;6.93;68.15;100493.59;124297;1102;104307;-73
2023/03/23 01:28:51;;;;;;;60.73;36.17;;;;;;;6.98;67.95;100494.73;124273;1099;104182;-73
2023/03/23 01:31:24;;;;;;;61.97;37.80;;;;;;;7.01;68.03;100505.33;124678;1099;101862;-74
2023/03/23 01:33:56;;;;;;;59.90;37.73;;;;;;;7.02;67.88;100498.38;124724;1099;104639;-73
2023/03/23 01:36:32;;;;;;;61.97;37.70;;;;;;;7.07;68.23;100507.33;124228;1099;104339;-73
2023/03/23 01:39:07;;;;;;;53.55;35.05;;;;;;;7.09;68.30;100502.19;124297;1099;103384;-74
2023/03/23 01:41:40;;;;;;;59.50;36.00;;;;;;;7.05;68.32;100505.48;124233;1099;104402;-74
2023/03/23 01:44:43;;;;;;;58.50;36.70;;;;;;;6.99;68.43;100501.72;124290;1100;104179;-74
2023/03/23 01:47:16;;;;;;;56.20;33.75;;;;;;;6.98;68.23;100504.25;124299;1099;102018;-74
2023/03/23 01:49:49;;;;;;;57.47;34.33;;;;;;;6.93;68.28;100504.02;124211;1099;104166;-73
2023/03/23 01:52:26;;;;;;;54.60;33.92;;;;;;;6.91;68.39;100504.78;124344;1099;102612;-75
2023/03/23 01:55:03;;;;;;;56.87;35.13;;;;;;;6.86;68.54;100509.77;124222;1103;104216;-74
2023/03/23 01:57:35;;;;;;;65.40;36.97;;;;;;;6.82;68.72;100510.42;124340;1099;104304;-75
2023/03/23 02:00:14;;;;;;;61.40;35.27;;;;;;;6.78;68.46;100513.71;124251;1102;104179;-74
2023/03/23 02:02:47;;;;;;;63.77;37.00;;;;;;;6.75;68.89;100516.16;124308;1099;101823;-75
2023/03/23 02:05:29;;;;;;;;;;;;;;;6.72;68.64;100516.00;124321;1099;104195;-74
2023/03/23 02:08:05;;;;;;;144.63;45.97;;;;;;;6.71;68.44;100508.98;124287;1102;103689;-75
2023/03/23 02:10:38;;;;;;;71.60;36.90;;;;;;;6.73;68.87;100505.66;124338;1099;104239;-74
2023/03/23 02:13:12;;;;;;;63.80;35.43;;;;;;;6.80;68.89;100512.06;124322;1102;104299;-74
2023/03/23 02:15:49;;;;;;;58.73;34.48;;;;;;;6.82;69.07;100513.03;124391;1100;102384;-74
2023/03/23 02:18:46;;;;;;;55.00;33.93;;;;;;;6.83;69.11;100513.11;125516;1099;102271;-73
2023/03/23 02:21:50;;;;;;;56.73;34.37;;;;;;;6.89;69.12;100516.83;124285;1099;102793;-73
2023/03/23 02:24:51;;;;;;;56.60;35.55;;;;;;;6.94;69.37;100515.37;124276;1099;101858;-74
2023/03/23 02:27:51;;;;;;;63.30;36.40;;;;;;;6.99;69.23;100513.88;124246;1099;104275;-75
2023/03/23 02:30:44;;;;;;;54.37;33.80;;;;;;;6.98;68.90;100518.22;124295;1099;104200;-74
2023/03/23 02:33:35;;;;;;;57.23;34.33;;;;;;;6.92;69.17;100528.34;124289;1099;118689;-75
2023/03/23 02:36:12;;;;;;;58.50;35.27;;;;;;;6.88;68.79;100522.89;124270;1102;102455;-74
2023/03/23 02:38:51;;;;;;;58.93;36.03;;;;;;;6.86;69.33;100520.20;124346;1102;104338;-75
2023/03/23 02:41:27;;;;;;;58.47;35.90;;;;;;;6.89;69.09;100524.66;124396;1099;104189;-80
2023/03/23 02:43:59;;;;;;;59.10;36.23;;;;;;;6.90;69.52;100522.13;124327;1099;102239;-76
2023/03/23 02:46:31;;;;;;;58.73;36.63;;;;;;;6.88;69.70;100523.77;124269;1100;102424;-74
2023/03/23 02:49:04;;;;;;;56.70;35.10;;;;;;;6.87;69.56;100523.70;124270;1099;104195;-74
2023/03/23 02:51:37;;;;;;;56.02;34.60;;;;;;;6.81;69.11;100522.58;124253;1099;104182;-72
2023/03/23 02:54:10;;;;;;;60.67;38.03;;;;;;;6.73;69.89;100526.52;124253;1099;104299;-73
2023/03/23 02:56:42;;;;;;;58.63;35.37;;;;;;;6.68;69.30;100519.26;124355;1102;101811;-73
2023/03/23 02:59:20;;;;;;;57.43;33.97;;;;;;;6.64;69.65;100526.92;124197;1099;102225;-73
2023/03/23 03:02:01;;;;;;;57.90;34.50;;;;;;;6.62;69.86;100522.43;124316;1099;104241;-74
2023/03/23 03:04:35;;;;;;;58.97;37.20;;;;;;;6.58;69.78;100520.50;124263;1100;104176;-73
2023/03/23 03:07:37;;;;;;;56.65;34.55;;;;;;;6.51;69.69;100523.59;124252;1099;101868;-74
2023/03/23 03:10:14;;;;;;;55.63;34.60;;;;;;;6.45;69.59;100527.68;124230;1099;102036;-73
2023/03/23 03:12:52;;;;;;;58.50;37.27;;;;;;;6.39;69.80;100527.36;124288;1102;104236;-73
2023/03/23 03:15:31;;;;;;;55.00;35.00;;;;;;;6.34;69.93;100520.98;124344;1103;104211;-74
2023/03/23 03:18:11;;;;;;;56.17;34.83;;;;;;;6.31;69.84;100523.45;124274;1101;101969;-73
2023/03/23 03:20:48;;;;;;;55.13;34.53;;;;;;;6.27;70.10;100530.19;124403;1099;101956;-76
2023/03/23 03:23:23;;;;;;;58.17;35.73;;;;;;;6.22;70.04;100531.67;124424;1099;101990;-75
2023/03/23 03:25:58;;;;;;;58.40;36.70;;;;;;;6.20;70.36;100527.17;124323;1099;104239;-73
2023/03/23 03:28:41;;;;;;;56.43;34.60;;;;;;;6.15;70.71;100529.53;124240;1101;104249;-74
2023/03/23 03:31:12;;;;;;;54.23;34.78;;;;;;;6.12;70.20;100526.77;124326;1099;104254;-74
2023/03/23 03:33:44;;;;;;;54.33;33.83;;;;;;;6.08;70.47;100525.71;124293;1102;104198;-74
2023/03/23 03:36:21;;;;;;;55.43;34.80;;;;;;;6.07;70.59;100530.84;124306;1099;102384;-76
2023/03/23 03:38:53;;;;;;;57.97;36.17;;;;;;;6.01;71.25;100535.72;124321;1101;104328;-74
2023/03/23 03:41:24;;;;;;;59.67;36.50;;;;;;;5.96;70.94;100531.94;124312;1102;102915;-74
2023/03/23 03:43:56;;;;;;;61.57;35.97;;;;;;;5.87;71.28;100527.11;124278;1102;102471;-74
2023/03/23 03:46:29;;;;;;;57.63;36.63;;;;;;;5.79;71.57;100536.22;124276;1101;102016;-74
2023/03/23 03:49:02;;;;;;;58.38;35.23;;;;;;;5.68;71.43;100533.90;124306;1100;104287;-74
2023/03/23 03:51:34;;;;;;;61.40;36.33;;;;;;;5.59;71.93;100541.19;124332;1102;101917;-76
2023/03/23 03:54:06;;;;;;;58.43;35.13;;;;;;;5.54;72.20;100540.05;124278;1100;104283;-74
2023/03/23 03:56:40;;;;;;;56.55;33.90;;;;;;;5.49;71.60;100544.99;124256;1100;101970;-74
2023/03/23 03:59:32;;;;;;;55.40;35.17;;;;;;;5.46;72.09;100541.33;124273;1099;104255;-74
2023/03/23 04:02:29;;;;;;;58.13;35.33;;;;;;;5.42;72.02;100547.16;124255;1099;104243;-75
2023/03/23 04:05:04;;;;;;;63.30;35.93;;;;;;;5.41;71.95;100548.87;124277;1099;104245;-73
2023/03/23 04:07:39;;;;;;;57.10;36.37;;;;;;;5.37;72.29;100544.29;124281;1102;104172;-74
2023/03/23 04:10:12;;;;;;;63.85;36.00;;;;;;;5.32;71.89;100546.63;124324;1099;104507;-74
2023/03/23 04:12:44;;;;;;;57.93;35.08;;;;;;;5.32;71.78;100549.23;124385;1099;104294;-74
2023/03/23 04:15:38;;;;;;;60.33;36.30;;;;;;;5.36;72.01;100547.69;124297;1099;104377;-74
2023/03/23 04:18:10;;;;;;;61.27;35.80;;;;;;;5.36;71.51;100551.21;124319;1100;104245;-73
2023/03/23 04:20:42;;;;;;;56.53;35.27;;;;;;;5.39;72.16;100553.07;124351;1103;104267;-73
2023/03/23 04:23:13;;;;;;;58.07;35.87;;;;;;;5.39;72.02;100551.39;124373;1100;101883;-73
2023/03/23 04:25:44;;;;;;;62.07;35.47;;;;;;;5.39;72.25;100551.39;124704;1099;104166;-74
2023/03/23 04:28:18;;;;;;;57.60;36.00;;;;;;;5.40;72.30;100554.88;124513;1099;104211;-75
2023/03/23 04:31:04;;;;;;;55.50;33.80;;;;;;;5.42;71.87;100554.96;124366;1099;101952;-73
2023/03/23 04:33:36;;;;;;;58.90;35.87;;;;;;;5.42;72.36;100558.45;124377;1099;104402;-75
2023/03/23 04:36:08;;;;;;;63.40;35.83;;;;;;;5.40;72.24;100560.08;124379;1102;102136;-73
2023/03/23 04:38:45;;;;;;;60.07;35.83;;;;;;;5.39;72.42;100561.80;124299;1102;104166;-72
2023/03/23 04:41:21;;;;;;;58.77;36.27;;;;;;;5.40;72.51;100560.97;124323;1102;104270;-71
2023/03/23 04:44:22;;;;;;;59.33;35.57;;;;;;;5.41;72.91;100567.09;124261;1099;104285;-72
2023/03/23 04:47:09;;;;;;;57.47;35.23;;;;;;;5.43;72.16;100565.46;124538;1100;104396;-71
2023/03/23 04:49:41;;;;;;;58.23;35.30;;;;;;;5.47;72.26;100572.65;124319;1099;104178;-72
2023/03/23 04:52:26;;;;;;;60.70;34.90;;;;;;;5.52;72.52;100576.40;124770;1102;104325;-71
2023/03/23 04:55:01;;;;;;;59.27;36.20;;;;;;;5.57;72.50;100574.06;124377;1099;102144;-72
2023/03/23 04:57:32;;;;;;;65.03;37.07;;;;;;;5.60;72.58;100574.23;124368;1099;103468;-71
2023/03/23 05:00:25;;;;;;;60.83;36.27;;;;;;;5.65;72.67;100583.19;124732;1099;104386;-71
2023/03/23 05:03:00;;;;;;;67.73;36.10;;;;;;;5.72;73.00;100582.73;124421;1100;104175;-71
2023/03/23 05:05:34;;;;;;;57.17;34.83;;;;;;;5.77;72.82;100583.00;124298;1099;104267;-71
2023/03/23 05:08:08;;;;;;;61.70;37.20;;;;;;;5.79;73.05;100583.09;124301;1102;104335;-71
2023/03/23 05:10:42;;;;;;;62.40;36.83;;;;;;;5.81;72.64;100586.66;124342;1099;104236;-72
2023/03/23 05:13:16;;;;;;;63.07;38.53;;;;;;;5.83;73.16;100574.61;124294;1102;104274;-71
2023/03/23 05:15:50;;;;;;;62.70;38.27;;;;;;;5.87;72.82;100581.80;124287;1099;104204;-70
2023/03/23 05:18:22;;;;;;;63.33;38.07;;;;;;;5.93;72.81;100582.14;124322;1099;104172;-70
2023/03/23 05:20:53;;;;;;;60.43;36.83;;;;;;;6.00;73.18;100586.01;124285;1099;104220;-70
2023/03/23 05:23:27;;;;;;;63.73;39.42;;;;;;;6.06;73.47;100591.55;124326;1102;102019;-70
2023/03/23 05:26:03;;;;;;;61.07;36.80;;;;;;;6.10;73.31;100588.32;124246;1099;101932;-71
2023/03/23 05:28:36;;;;;;;61.60;37.50;;;;;;;6.15;73.26;100594.67;124318;1102;101883;-70
2023/03/23 05:31:22;;;;;;;59.70;37.17;;;;;;;6.21;73.47;100599.33;124446;1102;104235;-75
2023/03/23 05:33:54;;;;;;;66.97;36.50;;;;;;;6.33;73.62;100594.80;124590;1099;104176;-75
2023/03/23 05:37:05;;;;;;;58.37;35.83;;;;;;;6.51;73.26;100587.05;124334;1099;104379;-75
2023/03/23 05:39:55;;;;;;;59.00;37.03;;;;;;;6.68;73.68;100587.94;124175;1102;104246;-70
2023/03/23 05:42:45;;;;;;;61.37;36.27;;;;;;;6.83;73.81;100583.53;124088;1100;101926;-70
2023/03/23 05:45:23;;;;;;;62.43;37.50;;;;;;;7.00;73.92;100588.73;124145;1099;104336;-71
2023/03/23 05:47:56;;;;;;;56.97;36.20;;;;;;;7.16;73.61;100591.30;124524;1099;104237;-72
2023/03/23 05:50:30;;;;;;;62.10;36.97;;;;;;;7.32;73.67;100589.46;124668;1102;104238;-78
2023/03/23 05:53:01;;;;;;;61.40;37.27;;;;;;;7.45;73.89;100583.13;124335;1099;103263;-73
2023/03/23 05:55:33;;;;;;;58.90;36.37;;;;;;;7.54;74.01;100587.11;124401;1099;104355;-70
2023/03/23 05:58:19;;;;;;;60.40;38.57;;;;;;;7.69;73.80;100593.90;124444;1100;104237;-71
2023/03/23 06:00:51;;;;;;;62.50;38.30;;;;;;;7.82;74.19;100592.77;124374;1102;104162;-72
2023/03/23 06:03:28;;;;;;;66.00;39.30;;;;;;;7.96;73.91;100598.66;124429;1102;104188;-72
2023/03/23 06:06:05;;;;;;;62.55;37.10;;;;;;;8.10;74.13;100598.50;124430;1098;101991;-76
2023/03/23 06:08:51;;;;;;;62.63;38.23;;;;;;;8.26;73.95;100596.61;124586;1102;104179;-74
2023/03/23 06:11:27;;;;;;;61.20;37.10;;;;;;;8.39;73.70;100595.45;124441;1102;104328;-72
2023/03/23 06:14:14;;;;;;;66.93;39.37;;;;;;;8.52;73.27;100600.42;124674;1100;104273;-77
2023/03/23 06:16:46;;;;;;;64.30;38.60;;;;;;;8.64;73.76;100603.60;124565;1100;104318;-74
2023/03/23 06:19:19;;;;;;;62.95;38.15;;;;;;;8.76;73.02;100602.38;124644;1099;104304;-74
2023/03/23 06:21:59;;;;;;;65.67;39.77;;;;;;;8.72;72.90;100610.91;124636;1099;104254;-78
2023/03/23 06:24:47;;;;;;;62.17;37.83;;;;;;;8.69;72.62;100610.77;124308;1099;104258;-73
2023/03/23 06:27:19;;;;;;;64.30;41.50;;;;;;;8.68;73.00;100606.36;124385;1099;104239;-76
2023/03/23 06:29:51;;;;;;;68.17;41.17;;;;;;;8.69;73.25;100616.00;124575;1102;104166;-74
2023/03/23 06:32:26;;;;;;;75.00;44.35;;;;;;;8.74;73.06;100614.48;124106;1102;101974;-72
2023/03/23 06:34:57;;;;;;;67.97;42.50;;;;;;;8.80;72.93;100623.52;124067;1101;102335;-71
2023/03/23 06:37:37;;;;;;;70.63;43.40;;;;;;;8.86;72.58;100617.64;124129;1099;104317;-73
2023/03/23 06:40:22;;;;;;;73.07;46.63;;;;;;;8.92;73.09;100617.92;124038;1102;104172;-71
2023/03/23 06:43:00;;;;;;;68.17;43.10;;;;;;;8.98;73.08;100620.81;124472;1099;102644;-72
2023/03/23 06:45:38;;;;;;;69.95;44.55;;;;;;;9.06;72.32;100620.27;124491;1099;104246;-73
2023/03/23 06:48:28;;;;;;;69.97;42.63;;;;;;;9.14;72.82;100617.13;124238;1099;104181;-73
2023/03/23 06:50:59;;;;;;;68.63;43.23;;;;;;;9.28;72.37;100614.22;124174;1099;104217;-73
2023/03/23 06:53:33;;;;;;;66.30;41.27;;;;;;;9.42;72.82;100618.31;124137;1099;104238;-72
2023/03/23 06:56:04;;;;;;;64.80;40.30;;;;;;;9.56;72.46;100611.03;124696;1099;104249;-72
2023/03/23 06:58:36;;;;;;;65.97;41.33;;;;;;;9.74;72.32;100615.23;124182;1099;104354;-71
2023/03/23 07:01:09;;;;;;;68.10;42.57;;;;;;;9.90;72.17;100617.66;124205;1102;104249;-72
2023/03/23 07:03:46;;;;;;;64.93;40.37;;;;;;;10.07;72.60;100613.09;124257;1102;104261;-73
2023/03/23 07:06:19;;;;;;;65.53;41.10;;;;;;;10.25;72.39;100608.56;124478;1099;104217;-78
2023/03/23 07:08:54;;;;;;;72.03;42.30;;;;;;;10.42;72.59;100608.34;124486;1099;104242;-77
2023/03/23 07:11:28;;;;;;;65.30;41.93;;;;;;;10.63;72.35;100612.59;124590;1099;102510;-77
2023/03/23 07:14:00;;;;;;;69.17;40.80;;;;;;;10.79;72.09;100615.84;124552;1099;101970;-74
2023/03/23 07:16:32;;;;;;;67.10;41.13;;;;;;;10.94;71.88;100609.39;124489;1099;104309;-76
2023/03/23 07:19:04;;;;;;;61.47;41.00;;;;;;;11.10;71.79;100609.08;125527;1099;102594;-77
2023/03/23 07:21:38;;;;;;;62.77;39.80;;;;;;;11.29;71.88;100609.72;124501;1102;104390;-78
2023/03/23 07:24:13;;;;;;;65.23;41.13;;;;;;;11.49;71.38;100603.40;125129;1099;102100;-77
2023/03/23 07:27:03;;;;;;;68.72;40.85;;;;;;;11.73;71.34;100612.05;124607;1099;102009;-79
2023/03/23 07:29:38;;;;;;;65.90;41.00;;;;;;;11.96;70.82;100603.20;124864;1099;102020;-76
2023/03/23 07:32:15;;;;;;;67.63;42.20;;;;;;;12.19;70.60;100593.39;125396;1102;101638;-77
2023/03/23 07:34:47;;;;;;;71.37;41.97;;;;;;;12.35;69.56;100597.38;124607;1102;102071;-77
2023/03/23 07:37:35;;;;;;;72.10;43.90;;;;;;;12.50;69.70;100601.33;124533;1099;104230;-75
2023/03/23 07:40:11;;;;;;;63.30;40.40;;;;;;;12.57;68.34;100598.92;124413;1102;104275;-76
2023/03/23 07:42:45;;;;;;;67.27;41.57;;;;;;;12.71;69.33;100598.41;125568;1099;102969;-76
2023/03/23 07:45:18;;;;;;;68.03;43.03;;;;;;;12.83;68.75;100596.13;124445;1099;104178;-76
2023/03/23 07:47:49;;;;;;;74.60;42.50;;;;;;;12.95;68.96;100596.47;124593;1102;102005;-75
2023/03/23 07:50:24;;;;;;;60.73;39.40;;;;;;;13.02;67.25;100596.64;124768;1099;105514;-77
2023/03/23 07:52:59;;;;;;;68.10;42.13;;;;;;;13.07;67.08;100590.66;124507;1099;101946;-78
2023/03/23 07:55:34;;;;;;;71.73;43.90;;;;;;;13.14;68.20;100589.06;124853;1099;104244;-75
2023/03/23 07:58:21;;;;;;;;;;;;;;;;;;;;;
2023/03/23 08:01:00;;;;;;;75.20;48.53;;;;;;;13.30;67.37;100588.60;124983;1099;104290;-76
2023/03/23 08:03:38;;;;;;;77.00;48.83;;;;;;;13.46;66.94;100595.22;124292;1103;104348;-75
2023/03/23 08:06:39;;;;;;;71.70;48.03;;;;;;;13.64;67.05;100585.98;124461;1102;104089;-76
2023/03/23 08:09:49;;;;;;;71.23;48.87;;;;;;;13.79;65.15;100588.98;124338;1105;104386;-76
2023/03/23 08:12:38;;;;;;;79.73;47.87;;;;;;;13.84;66.81;100586.46;124240;1102;104300;-76
2023/03/23 08:15:39;;;;;;;72.05;47.70;;;;;;;14.00;66.23;100585.95;124117;1106;102101;-75
2023/03/23 08:18:14;;;;;;;71.37;46.30;;;;;;;14.18;66.53;100589.88;124234;1099;104432;-75
2023/03/23 08:21:06;;;;;;;68.50;44.93;;;;;;;14.36;66.25;100579.70;124340;1099;104095;-76
2023/03/23 08:24:02;;;;;;;65.00;43.50;;;;;;;14.42;65.26;100575.43;125773;1098;104277;-75
2023/03/23 08:27:07;;;;;;;63.77;43.10;;;;;;;14.58;65.81;100577.52;124551;1099;101835;-78
2023/03/23 08:30:00;;;;;;;60.78;41.42;;;;;;;14.80;65.96;100577.98;125012;1099;102212;-83
2023/03/23 08:32:52;;;;;;;58.17;39.83;;;;;;;15.06;65.37;100575.84;125777;1098;104057;-77
2023/03/23 08:35:38;;;;;;;57.20;38.43;;;;;;;15.20;65.03;100570.81;124621;1099;102056;-75
2023/03/23 08:38:21;;;;;;;54.47;37.07;;;;;;;15.30;64.44;100574.50;124560;1098;104265;-77
2023/03/23 08:41:16;;;;;;;60.80;37.30;;;;;;;15.52;64.49;100571.38;125072;1099;104172;-79
2023/03/23 08:44:17;;;;;;;54.53;32.57;;;;;;;15.68;63.76;100580.44;127250;1098;104277;-78
2023/03/23 08:47:12;;;;;;;46.57;29.23;;;;;;;15.88;64.62;100575.50;126051;1098;104201;-80
2023/03/23 08:50:00;;;;;;;41.20;26.40;;;;;;;16.02;64.04;100581.00;124659;1102;104159;-76
2023/03/23 08:53:12;;;;;;;38.77;26.00;;;;;;;16.24;64.07;100573.38;124679;1102;109498;-80
2023/03/23 08:56:12;;;;;;;40.20;25.50;;;;;;;16.48;63.05;100568.37;124404;1102;104211;-75
2023/03/23 08:59:14;;;;;;;39.10;24.23;;;;;;;16.66;62.26;100572.14;124376;1102;104187;-72
2023/03/23 09:02:18;;;;;;;41.10;24.33;;;;;;;16.84;61.97;100567.05;124838;1099;101944;-78
2023/03/23 09:05:02;;;;;;;37.03;23.30;;;;;;;16.99;61.97;100562.81;124806;1099;104150;-81
2023/03/23 09:07:42;;;;;;;36.20;22.93;;;;;;;16.89;60.50;100562.72;125793;1099;101762;-82
2023/03/23 09:10:17;;;;;;;37.57;24.03;;;;;;;17.00;60.56;100561.92;125364;1099;101817;-77
2023/03/23 09:12:49;;;;;;;37.20;23.37;;;;;;;17.01;60.54;100564.59;124718;1099;104166;-79
2023/03/23 09:15:21;;;;;;;34.90;22.27;;;;;;;17.07;60.59;100553.17;124511;1102;104348;-76
2023/03/23 09:17:57;;;;;;;36.13;22.03;;;;;;;17.11;59.55;100556.73;124602;1102;104172;-78
2023/03/23 09:20:37;;;;;;;37.57;22.73;;;;;;;17.19;59.43;100555.94;124649;1102;103674;-75
2023/03/23 09:23:10;;;;;;;40.45;23.75;;;;;;;17.19;58.79;100557.72;124601;1102;104181;-77
2023/03/23 09:25:44;;;;;;;35.73;22.27;;;;;;;17.25;58.95;100552.47;124613;1099;102453;-76
2023/03/23 09:28:36;;;;;;;34.90;22.40;;;;;;;17.33;59.43;100545.47;124470;1099;102116;-76
2023/03/23 09:31:10;;;;;;;37.85;22.70;;;;;;;17.43;58.19;100552.60;124506;1099;102029;-74
2023/03/23 09:33:44;;;;;;;40.77;22.70;;;;;;;17.48;58.36;100549.99;124564;1102;109452;-77
2023/03/23 09:36:17;;;;;;;34.58;21.42;;;;;;;17.54;58.27;100550.05;124571;1100;101960;-77
2023/03/23 09:38:48;;;;;;;;;;;;;;;17.60;57.13;100542.13;124609;1099;102795;-75
2023/03/23 09:41:45;;;;;;;32.53;20.30;;;;;;;17.52;56.55;100535.01;124307;1102;104173;-77
2023/03/23 09:44:29;;;;;;;30.80;17.85;;;;;;;17.59;56.54;100527.11;124608;1099;104166;-76
2023/03/23 09:47:11;;;;;;;30.00;16.90;;;;;;;17.70;56.33;100529.84;124765;1102;101888;-77
2023/03/23 09:49:53;;;;;;;27.83;16.67;;;;;;;17.78;55.83;100527.24;124629;1099;101931;-76
2023/03/23 09:52:36;;;;;;;26.70;15.17;;;;;;;17.90;55.32;100522.05;125172;1100;103242;-79
2023/03/23 09:55:21;;;;;;;25.73;15.10;;;;;;;17.92;55.63;100520.28;125849;1101;102031;-76
2023/03/23 09:58:12;;;;;;;29.20;15.17;;;;;;;17.98;54.58;100508.78;125761;1098;104191;-75
2023/03/23 10:00:58;;;;;;;24.63;14.37;;;;;;;18.06;53.56;100506.17;124256;1102;101972;-77
2023/03/23 10:03:39;;;;;;;26.60;15.30;;;;;;;18.07;53.24;100513.27;124479;1099;104190;-77
2023/03/23 10:06:15;;;;;;;24.30;14.30;;;;;;;18.13;53.81;100506.21;125285;1099;102016;-78
2023/03/23 10:08:51;;;;;;;26.77;14.63;;;;;;;18.10;52.88;100505.32;125120;1102;104418;-75
2023/03/23 10:11:40;;;;;;;27.47;14.57;;;;;;;18.13;53.73;100503.55;124736;1099;101898;-77
2023/03/23 10:14:28;;;;;;;26.70;14.47;;;;;;;18.09;52.65;100501.79;124550;1102;102239;-78
2023/03/23 10:17:07;;;;;;;25.37;14.10;;;;;;;18.15;53.14;100506.22;125673;1101;103593;-76
2023/03/23 10:19:47;;;;;;;25.77;14.07;;;;;;;18.09;51.93;100504.44;124718;1102;102628;-80
2023/03/23 10:22:38;;;;;;;24.17;13.40;;;;;;;18.19;52.57;100500.05;126193;1100;104095;-78
2023/03/23 10:25:20;;;;;;;22.17;13.03;;;;;;;18.27;51.71;100498.31;125932;1098;104172;-78
2023/03/23 10:28:03;;;;;;;26.93;13.90;;;;;;;18.38;51.70;100487.73;125586;1098;102044;-79
2023/03/23 10:30:37;;;;;;;24.93;13.33;;;;;;;18.42;52.27;100485.98;125044;1099;101820;-81
2023/03/23 10:33:17;;;;;;;25.63;12.87;;;;;;;18.46;51.42;100490.41;125076;1099;104099;-80
2023/03/23 10:36:00;;;;;;;28.77;13.87;;;;;;;18.45;51.28;100484.22;124929;1099;107732;-80
2023/03/23 10:38:38;;;;;;;25.17;13.10;;;;;;;18.51;51.38;100483.33;124975;1099;104259;-77
2023/03/23 10:41:12;;;;;;;23.40;13.40;;;;;;;18.56;50.69;100475.38;124519;1102;104251;-76
2023/03/23 10:43:45;;;;;;;25.17;13.57;;;;;;;18.59;51.27;100475.38;125901;1098;102029;-76
2023/03/23 10:46:28;;;;;;;25.40;12.70;;;;;;;18.65;51.35;100478.05;124992;1099;104217;-75
2023/03/23 10:49:03;;;;;;;22.43;12.20;;;;;;;18.69;50.75;100471.88;124476;1099;102766;-76
2023/03/23 10:51:39;;;;;;;26.47;13.63;;;;;;;18.66;49.53;100474.52;124475;1099;102377;-81
2023/03/23 10:54:11;;;;;;;24.30;12.77;;;;;;;18.61;49.60;100469.20;125425;1098;104215;-80
2023/03/23 10:56:45;;;;;;;25.60;13.57;;;;;;;18.54;48.80;100471.84;125300;1099;102728;-83
2023/03/23 10:59:23;;;;;;;22.90;12.90;;;;;;;18.52;48.73;100460.33;125083;1099;101962;-77
2023/03/23 11:01:58;;;;;;;26.05;13.00;;;;;;;18.47;48.48;100462.97;124389;1099;104300;-76
2023/03/23 11:04:32;;;;;;;24.30;13.90;;;;;;;18.56;48.64;100460.34;124576;1099;104839;-75
2023/03/23 11:07:15;;;;;;;26.23;13.38;;;;;;;18.58;48.68;100458.56;124950;1099;102028;-72
2023/03/23 11:09:58;;;;;;;21.97;12.17;;;;;;;18.63;48.75;100453.26;124773;1099;104294;-77
2023/03/23 11:12:35;;;;;;;24.80;12.83;;;;;;;18.59;47.24;100447.06;124911;1099;104169;-74
2023/03/23 11:15:26;;;;;;;22.87;12.47;;;;;;;18.66;46.96;100446.17;126106;1098;101901;-78
2023/03/23 11:18:07;;;;;;;23.10;11.77;;;;;;;18.73;47.82;100448.84;125738;1099;102865;-78
2023/03/23 11:20:50;;;;;;;19.90;10.20;;;;;;;18.84;47.52;100439.12;125233;1099;102644;-80
2023/03/23 11:23:28;;;;;;;23.27;11.17;;;;;;;18.92;46.85;100425.88;125687;1099;102413;-81
2023/03/23 11:26:15;;;;;;;24.43;11.67;;;;;;;18.95;46.99;100425.88;125531;1099;102681;-80
2023/03/23 11:28:52;;;;;;;21.33;11.40;;;;;;;18.99;46.94;100424.97;125947;1099;102748;-80
2023/03/23 11:31:37;;;;;;;22.60;11.90;;;;;;;18.97;47.19;100421.44;125207;1099;102983;-75
2023/03/23 11:34:22;;;;;;;22.90;11.70;;;;;;;18.85;46.49;100412.58;125648;1099;104172;-76
2023/03/23 11:37:06;;;;;;;21.40;11.03;;;;;;;18.90;46.27;100417.90;127185;1098;104201;-79
2023/03/23 11:39:49;;;;;;;23.33;10.77;;;;;;;18.79;45.89;100415.20;126369;1098;104235;-77
2023/03/23 11:42:27;;;;;;;23.93;10.20;;;;;;;18.71;45.83;100421.38;126142;1099;101874;-79
2023/03/23 11:45:18;;;;;;;19.97;10.43;;;;;;;18.72;45.20;100420.50;125920;1098;101839;-76
2023/03/23 11:48:03;;;;;;;21.33;10.40;;;;;;;18.74;45.58;100413.41;124728;1101;104163;-76
2023/03/23 11:50:45;;;;;;;20.77;10.30;;;;;;;18.72;44.62;100413.41;126199;1098;102309;-75
2023/03/23 11:53:25;;;;;;;21.67;10.03;;;;;;;18.73;43.31;100406.31;126964;1098;102086;-79